Terminal Aerodrome Forecast
Issued by NWS Green Bay, WI

Home | Current Version | Previous Version | Graphics & Text | Print | Product List | Glossary On
Versions: 1 2 3 4 5 6 7 8 9 10 11 12 13 14 15 16 17 18 19 20 21 22 23 24 25
000
FTUS43 KGRB 191736
TAFGRB
TAF
KGRB 191736Z 1918/2018 11006KT P6SM OVC012
     FM192000 11006KT P6SM BKN015
      TEMPO 1920/1922 SCT015
     FM192200 11005KT P6SM SCT200
     FM200700 13004KT 4SM BR SCT070
     FM201400 15009KT P6SM BKN060
     FM201600 16011G18KT P6SM BKN070=

USA.gov is the U.S. government's official web portal to all federal, state and local government web resources and services.